Maple Grove, MN (55311)

1:52 PM CDT on October 21, 2014 (GMT -0500)
North Rice Lake | Change Station
CLOSE
Current Station
Personal Weather Station
Location: Maple Grove, MN
Elevation: 896 ft
Nearby Weather Stations

Elev 896 ft 45.12 °N, 93.48 °W | Updated 14 minutes ago

Clear
Clear
58.3 °F
Feels Like 58.3 °F
N
4.2
Wind Variable Wind from South

Today
High -- | Low -- °F
--% Chance of Precip.
Yesterday
High -- | Low -- °F
Precip. -- in
7:37 AM 6:18 PM
Waning Crescent, 5% visible
Pressure 30.19 in
Visibility 10.0 miles
Clouds Clear
Dew Point 58 °F
Humidity 98%
Rainfall 0.00 in
Snow Depth Not available.
UV 4 out of 12
Pollen .10 out of 12
Ozone Good
PM2.5 Good
Flu Activity Sporadic
METAR KMIC 211753Z 11007KT 10SM CLR 13/03 A3017 RMK AO2 SLP222 I6001 T01280033 10133 20000 58006

More Conditions Fewer Conditions

Pressure 30.19 in
Visibility 10.0 miles
Clouds Clear
Dew Point 58 °F
Humidity 98%
Rainfall 0.00 in
Snow Depth Not available.
UV 4 out of 12
Pollen .10 out of 12
Ozone Good
PM2.5 Good
Flu Activity Sporadic
METAR KMIC 211753Z 11007KT 10SM CLR 13/03 A3017 RMK AO2 SLP222 I6001 T01280033 10133 20000 58006

More Conditions Fewer Conditions

10-Day Weather Forecast

Almanac

Astronomy

Oct. 21, 2014 Rise Set
Actual Time 7:37 AM CDT 6:18 PM CDT
Civil Twilight 7:07 AM CDT 6:48 PM CDT
Nautical Twilight 6:33 AM CDT 7:22 PM CDT
Astronomical Twilight 5:59 AM CDT 7:56 PM CDT
Moon 5:16 AM CDT 5:17 PM CDT
Length of Visible Light 11h 40m
Length of Day
10h 40m
Tomorrow will be 3m 0s shorter.
Waning Crescent, 5% of the Moon is Illuminated
Today
Waning Crescent
Oct 23
New
Oct 30
First Quarter
Nov 6
Full
Nov 14
Last Quarter

Today's Extremes

State Highs State Lows

Community

WunderPhotos

Upload Photos

1,763,742 photos uploaded!

Nearby

Air Quality

  Air Quality AQ Index Pollutant
Yesterday Good
PM2.5
Yesterday Good
OZONE
Current Good
PM2.5
Current Good
OZONE
Tuesday Good
PM2.5
Wednesday Good
PM2.5
Thursday Good
PM2.5
Friday Moderate
PM2.5
Saturday Moderate
PM2.5
Sunday Moderate
PM2.5

Snow Depth

Station Depth Elevation
No new snow has been reported.

Earthquake Activity

City Distance Mag. Time & Date
No recent earthquake activity has been reported nearby.
Minimum magnitude displayed is 2.5.

Coastal Water Temperatures

Place Temperature
No Stations Reporting

Nearby Weather Stations